createdAt,value
2018-04-01T00:00:08.188Z,996.8
2018-04-01T00:00:34.334Z,996.81
2018-04-01T00:01:00.468Z,996.8
2018-04-01T00:01:26.604Z,996.79
2018-04-01T00:01:52.746Z,996.77
2018-04-01T00:02:18.892Z,996.8
2018-04-01T00:02:45.028Z,996.74
2018-04-01T00:03:11.175Z,996.77
2018-04-01T00:03:37.340Z,996.76
2018-04-01T00:04:03.478Z,996.8
2018-04-01T00:04:29.618Z,996.77
2018-04-01T00:04:55.813Z,996.75
2018-04-01T00:05:21.979Z,996.75
2018-04-01T00:05:48.132Z,996.74
2018-04-01T00:06:14.263Z,996.76
2018-04-01T00:06:40.441Z,996.7
2018-04-01T00:07:06.601Z,996.75
2018-04-01T00:07:32.760Z,996.72
2018-04-01T00:07:58.925Z,996.76
2018-04-01T00:08:25.066Z,996.74
2018-04-01T00:08:51.233Z,996.77
2018-04-01T00:09:17.430Z,996.71
2018-04-01T00:09:43.525Z,996.71
2018-04-01T00:10:09.663Z,996.67
2018-04-01T00:10:35.849Z,996.7
2018-04-01T00:11:01.973Z,996.71
2018-04-01T00:11:28.132Z,996.72
2018-04-01T00:11:54.272Z,996.71
2018-04-01T00:12:20.405Z,996.72
2018-04-01T00:12:46.548Z,996.77
2018-04-01T00:13:12.691Z,996.77
2018-04-01T00:13:38.833Z,996.74
2018-04-01T00:14:05.023Z,996.79
2018-04-01T00:14:31.154Z,996.82
2018-04-01T00:14:57.292Z,996.77
2018-04-01T00:15:23.547Z,996.78
2018-04-01T00:15:49.634Z,996.76
2018-04-01T00:16:15.829Z,996.79
2018-04-01T00:16:41.971Z,996.75
2018-04-01T00:17:08.104Z,996.82
2018-04-01T00:17:34.262Z,996.76
2018-04-01T00:18:00.407Z,996.74
2018-04-01T00:18:26.536Z,996.77
2018-04-01T00:18:52.678Z,996.72
2018-04-01T00:19:18.819Z,996.73
2018-04-01T00:19:44.966Z,996.75
2018-04-01T00:20:11.108Z,996.72
2018-04-01T00:20:37.447Z,996.77
2018-04-01T00:21:03.582Z,996.76
2018-04-01T00:21:29.720Z,996.78
2018-04-01T00:21:55.890Z,996.78
2018-04-01T00:22:22.011Z,996.78
2018-04-01T00:22:48.158Z,996.82
2018-04-01T00:23:14.298Z,996.79
2018-04-01T00:23:40.498Z,996.82
2018-04-01T00:24:06.631Z,996.79
2018-04-01T00:24:32.761Z,996.85
2018-04-01T00:24:58.896Z,996.88
2018-04-01T00:25:25.043Z,996.89
2018-04-01T00:25:51.187Z,996.92
2018-04-01T00:26:17.333Z,996.86
2018-04-01T00:26:43.466Z,996.88
2018-04-01T00:27:09.618Z,996.95
2018-04-01T00:27:35.795Z,996.91
2018-04-01T00:28:01.945Z,996.91
2018-04-01T00:28:28.076Z,996.9
2018-04-01T00:28:54.221Z,996.88
2018-04-01T00:29:20.383Z,996.9
2018-04-01T00:29:46.517Z,996.91
2018-04-01T00:30:12.648Z,996.97
2018-04-01T00:30:38.819Z,996.95
2018-04-01T00:31:04.984Z,996.92
2018-04-01T00:31:31.142Z,996.93
2018-04-01T00:31:57.311Z,996.94
2018-04-01T00:32:23.471Z,996.91
2018-04-01T00:32:49.643Z,996.95
2018-04-01T00:33:15.816Z,996.93
2018-04-01T00:33:41.972Z,996.97
2018-04-01T00:34:08.125Z,996.98
2018-04-01T00:34:34.271Z,996.96
2018-04-01T00:35:00.457Z,996.94
2018-04-01T00:35:26.594Z,996.98
2018-04-01T00:35:52.796Z,996.99
2018-04-01T00:36:19.040Z,997.04
2018-04-01T00:36:45.167Z,997.01
2018-04-01T00:37:11.327Z,996.98
2018-04-01T00:37:37.505Z,997.04
2018-04-01T00:38:03.639Z,997.05
2018-04-01T00:38:29.830Z,997.05
2018-04-01T00:38:56.019Z,997.04
2018-04-01T00:39:22.167Z,997.02
2018-04-01T00:39:48.311Z,997.08
2018-04-01T00:40:14.489Z,997.09
2018-04-01T00:40:40.662Z,997.08
2018-04-01T00:41:06.805Z,997.07
2018-04-01T00:41:32.969Z,997.08
2018-04-01T00:41:59.118Z,997.09
2018-04-01T00:42:25.291Z,997.06
2018-04-01T00:42:51.451Z,997.1
2018-04-01T00:43:17.619Z,997.12
2018-04-01T00:43:43.777Z,997.09
2018-04-01T00:44:09.951Z,997.09
2018-04-01T00:44:36.137Z,997.02
2018-04-01T00:45:02.277Z,997.08
2018-04-01T00:45:28.508Z,997.06
2018-04-01T00:45:54.664Z,997.07
2018-04-01T00:46:20.944Z,997.07
2018-04-01T00:46:47.067Z,997.05
2018-04-01T00:47:13.209Z,997.05
2018-04-01T00:47:39.409Z,997.08
2018-04-01T00:48:05.549Z,997.05
2018-04-01T00:48:31.706Z,997.08
2018-04-01T00:48:57.875Z,997.02
2018-04-01T00:49:24.059Z,997.08
2018-04-01T00:49:50.245Z,997.04
2018-04-01T00:50:16.372Z,997.06
2018-04-01T00:50:42.526Z,997.05
2018-04-01T00:51:08.685Z,997.03
2018-04-01T00:51:34.868Z,997.03
2018-04-01T00:52:01.048Z,997.07
2018-04-01T00:52:27.218Z,997.02
2018-04-01T00:52:53.369Z,997.07
2018-04-01T00:53:19.519Z,997.07
2018-04-01T00:53:45.671Z,997.06
2018-04-01T00:54:11.848Z,997.07
2018-04-01T00:54:37.996Z,997.07
2018-04-01T00:55:04.181Z,997.09
2018-04-01T00:55:30.335Z,997.09
2018-04-01T00:55:56.499Z,997.06
2018-04-01T00:56:22.721Z,997.08
2018-04-01T00:56:48.909Z,997.05
2018-04-01T00:57:15.066Z,997.09
2018-04-01T00:57:41.232Z,997.08
2018-04-01T00:58:07.384Z,997.09
2018-04-01T00:58:33.530Z,997.1
2018-04-01T00:58:59.681Z,997.1
2018-04-01T00:59:25.846Z,997.08
2018-04-01T00:59:51.987Z,997.09
2018-04-01T01:00:18.179Z,997.12
2018-04-01T01:00:44.332Z,997.15
2018-04-01T01:01:10.481Z,997.14
2018-04-01T01:01:36.646Z,997.18
2018-04-01T01:02:02.788Z,997.16
2018-04-01T01:02:28.958Z,997.18
2018-04-01T01:02:55.185Z,997.17
2018-04-01T01:03:21.339Z,997.14
2018-04-01T01:03:47.501Z,997.17
2018-04-01T01:04:13.679Z,997.1
2018-04-01T01:04:39.826Z,997.13
2018-04-01T01:05:05.985Z,997.1
2018-04-01T01:05:32.120Z,997.12
2018-04-01T01:05:58.312Z,997.1
2018-04-01T01:06:24.460Z,997.12
2018-04-01T01:06:50.622Z,997.11
2018-04-01T01:07:16.766Z,997.13
2018-04-01T01:07:42.931Z,997.09
2018-04-01T01:08:09.108Z,997.12
2018-04-01T01:08:35.274Z,997.12
2018-04-01T01:09:01.541Z,997.09
2018-04-01T01:09:27.660Z,997.09
2018-04-01T01:09:53.792Z,997.09
2018-04-01T01:10:19.935Z,997.13
2018-04-01T01:10:46.154Z,997.11
2018-04-01T01:11:12.315Z,997.11
2018-04-01T01:11:38.485Z,997.1
2018-04-01T01:12:04.703Z,997.13
2018-04-01T01:12:30.869Z,997.12
2018-04-01T01:12:57.026Z,997.14
2018-04-01T01:13:23.231Z,997.16
2018-04-01T01:13:49.387Z,997.13
2018-04-01T01:14:15.544Z,997.16
2018-04-01T01:14:41.696Z,997.16
2018-04-01T01:15:07.886Z,997.13
2018-04-01T01:15:34.057Z,997.16
2018-04-01T01:16:00.233Z,997.19
2018-04-01T01:16:26.424Z,997.19
2018-04-01T01:16:52.588Z,997.16
2018-04-01T01:17:18.792Z,997.16
2018-04-01T01:17:44.952Z,997.17
2018-04-01T01:18:11.118Z,997.17
2018-04-01T01:18:37.303Z,997.16
2018-04-01T01:19:03.443Z,997.19
2018-04-01T01:19:29.625Z,997.18
2018-04-01T01:19:55.833Z,997.19
2018-04-01T01:20:21.991Z,997.16
2018-04-01T01:20:48.147Z,997.18
2018-04-01T01:21:14.296Z,997.17
2018-04-01T01:21:40.484Z,997.17
2018-04-01T01:22:06.655Z,997.17
2018-04-01T01:22:32.828Z,997.17
2018-04-01T01:22:59.016Z,997.17
2018-04-01T01:23:25.215Z,997.17
2018-04-01T01:23:51.406Z,997.14
2018-04-01T01:24:17.597Z,997.17
2018-04-01T01:24:43.767Z,997.13
2018-04-01T01:25:09.939Z,997.16
2018-04-01T01:25:36.100Z,997.16
2018-04-01T01:26:02.284Z,997.17
2018-04-01T01:26:28.408Z,997.19
2018-04-01T01:26:54.632Z,997.18
2018-04-01T01:27:20.835Z,997.18
2018-04-01T01:27:47.041Z,997.14
2018-04-01T01:28:13.283Z,997.15
2018-04-01T01:28:39.449Z,997.17
2018-04-01T01:29:05.624Z,997.15
2018-04-01T01:29:31.826Z,997.19
2018-04-01T01:29:57.939Z,997.14
2018-04-01T01:30:24.115Z,997.16
2018-04-01T01:30:50.259Z,997.15
2018-04-01T01:31:16.445Z,997.13
2018-04-01T01:31:42.587Z,997.14
2018-04-01T01:32:08.808Z,997.12
2018-04-01T01:32:34.933Z,997.11
2018-04-01T01:33:01.125Z,997.12
2018-04-01T01:33:27.263Z,997.1
2018-04-01T01:33:53.445Z,997.09
2018-04-01T01:34:19.607Z,997.06
2018-04-01T01:34:45.760Z,997.07
2018-04-01T01:35:11.916Z,997.04
2018-04-01T01:35:38.080Z,997.08
2018-04-01T01:36:04.250Z,997.05
2018-04-01T01:36:30.461Z,997.01
2018-04-01T01:36:56.618Z,997.02
2018-04-01T01:37:22.788Z,996.99
2018-04-01T01:37:48.962Z,997.03
2018-04-01T01:38:15.122Z,997.02
2018-04-01T01:38:41.352Z,997.02
2018-04-01T01:39:07.546Z,996.98
2018-04-01T01:39:33.698Z,997
2018-04-01T01:39:59.871Z,997.01
2018-04-01T01:40:26.024Z,997.02
2018-04-01T01:40:52.264Z,997.03
2018-04-01T01:41:18.435Z,997.01
2018-04-01T01:41:44.603Z,997
2018-04-01T01:42:10.785Z,997
2018-04-01T01:42:36.953Z,997.02
2018-04-01T01:43:03.109Z,997.02
2018-04-01T01:43:29.271Z,996.99
2018-04-01T01:43:55.439Z,997.01
2018-04-01T01:44:21.609Z,997.03
2018-04-01T01:44:47.778Z,997.04
2018-04-01T01:45:13.965Z,997.01
2018-04-01T01:45:40.093Z,997.04
2018-04-01T01:46:06.270Z,997.06
2018-04-01T01:46:32.486Z,997.05
2018-04-01T01:46:58.668Z,997.03
2018-04-01T01:47:24.867Z,997.03
2018-04-01T01:47:51.047Z,997.07
2018-04-01T01:48:17.241Z,997.05
2018-04-01T01:48:43.406Z,997.05
2018-04-01T01:49:09.583Z,997.07
2018-04-01T01:49:35.735Z,997.02
2018-04-01T01:50:01.891Z,997
2018-04-01T01:50:28.038Z,997.03
2018-04-01T01:50:54.223Z,997.04
2018-04-01T01:51:20.404Z,997.04
2018-04-01T01:51:46.581Z,997.03
2018-04-01T01:52:12.756Z,997.03
2018-04-01T01:52:38.985Z,997.04
2018-04-01T01:53:05.158Z,997.03
2018-04-01T01:53:31.313Z,997.04
2018-04-01T01:53:57.506Z,997.02
2018-04-01T01:54:23.687Z,997.05
2018-04-01T01:54:49.821Z,997.02
2018-04-01T01:55:15.992Z,997.06
2018-04-01T01:55:42.154Z,997.06
2018-04-01T01:56:08.314Z,997.1
2018-04-01T01:56:34.469Z,997.04
2018-04-01T01:57:00.664Z,997.03
2018-04-01T01:57:26.806Z,997.02
2018-04-01T01:57:52.979Z,997.03
2018-04-01T01:58:19.146Z,997.02
2018-04-01T01:58:45.301Z,997.03
2018-04-01T01:59:11.454Z,997.01
2018-04-01T01:59:37.643Z,997.03
2018-04-01T02:00:03.824Z,997.01
2018-04-01T02:00:30.069Z,997.04
2018-04-01T02:00:56.208Z,996.99
2018-04-01T02:01:22.355Z,997.03
2018-04-01T02:01:48.533Z,997.03
2018-04-01T02:02:14.703Z,997.03
2018-04-01T02:02:40.866Z,996.98
2018-04-01T02:03:07.031Z,996.99
2018-04-01T02:03:33.241Z,996.99
2018-04-01T02:03:59.423Z,996.99
2018-04-01T02:04:25.652Z,997.01
2018-04-01T02:04:51.771Z,996.99
2018-04-01T02:05:17.942Z,997.02
2018-04-01T02:05:44.121Z,997.01
2018-04-01T02:06:10.298Z,997
2018-04-01T02:06:36.495Z,997.03
2018-04-01T02:07:02.653Z,997
2018-04-01T02:07:28.797Z,997.01
2018-04-01T02:07:54.977Z,997.01
2018-04-01T02:08:21.147Z,997.04
2018-04-01T02:08:47.347Z,997.03
2018-04-01T02:09:13.494Z,997.05
2018-04-01T02:09:39.667Z,997.05
2018-04-01T02:10:05.821Z,997.06
2018-04-01T02:10:32.020Z,997.08
2018-04-01T02:10:58.171Z,997.05
2018-04-01T02:11:24.379Z,997.02
2018-04-01T02:11:50.542Z,997.04
2018-04-01T02:12:16.706Z,997.06
2018-04-01T02:12:42.870Z,997.06
2018-04-01T02:13:09.009Z,997.08
2018-04-01T02:13:35.231Z,997.07
2018-04-01T02:14:01.381Z,997.01
2018-04-01T02:14:27.568Z,997.04
2018-04-01T02:14:53.693Z,997.06
2018-04-01T02:15:19.874Z,997.03
2018-04-01T02:15:46.009Z,997.05
2018-04-01T02:16:12.148Z,997.03
2018-04-01T02:16:38.328Z,997.02
2018-04-01T02:17:04.486Z,997
2018-04-01T02:17:30.657Z,997.04
2018-04-01T02:17:56.883Z,997.02
2018-04-01T02:18:22.968Z,997.02
2018-04-01T02:18:49.231Z,997.03
2018-04-01T02:19:15.382Z,997.04
2018-04-01T02:19:41.562Z,997.04
2018-04-01T02:20:07.732Z,997.03
2018-04-01T02:20:33.859Z,997.04
2018-04-01T02:21:00.037Z,997.07
2018-04-01T02:21:26.194Z,997.01
2018-04-01T02:21:52.373Z,997.05
2018-04-01T02:22:18.596Z,997.04
2018-04-01T02:22:44.756Z,997
2018-04-01T02:23:10.998Z,997.04
2018-04-01T02:23:37.161Z,997.02
2018-04-01T02:24:03.326Z,997.02
2018-04-01T02:24:29.496Z,997.03
2018-04-01T02:24:55.626Z,997.04
2018-04-01T02:25:21.803Z,997.01
2018-04-01T02:25:48.010Z,997.01
2018-04-01T02:26:14.159Z,997.03
2018-04-01T02:26:40.312Z,997.05
2018-04-01T02:27:06.482Z,997.06
2018-04-01T02:27:32.663Z,997.05
2018-04-01T02:27:58.888Z,997.06
2018-04-01T02:28:25.037Z,997.05
2018-04-01T02:28:51.235Z,997.07
2018-04-01T02:29:17.429Z,997.05
2018-04-01T02:29:43.612Z,997.04
2018-04-01T02:30:09.815Z,997.05
2018-04-01T02:30:35.990Z,997.06
2018-04-01T02:31:02.172Z,997.04
2018-04-01T02:31:28.413Z,997.07
2018-04-01T02:31:54.528Z,997.06
2018-04-01T02:32:20.693Z,997.11
2018-04-01T02:32:46.878Z,997.11
2018-04-01T02:33:13.050Z,997.05
2018-04-01T02:33:39.215Z,997.09
2018-04-01T02:34:05.363Z,997.09
2018-04-01T02:34:31.532Z,997.08
2018-04-01T02:34:57.691Z,997.08
2018-04-01T02:35:23.882Z,997.04
2018-04-01T02:35:50.025Z,997.08
2018-04-01T02:36:16.166Z,997.05
2018-04-01T02:36:42.327Z,997.07
2018-04-01T02:37:08.547Z,997.06
2018-04-01T02:37:34.747Z,997.05
2018-04-01T02:38:00.921Z,997.07
2018-04-01T02:38:27.143Z,997.05
2018-04-01T02:38:53.281Z,997.08
2018-04-01T02:39:19.460Z,997.06
2018-04-01T02:39:45.660Z,997.05
2018-04-01T02:40:11.832Z,997.06
2018-04-01T02:40:37.984Z,997.07
2018-04-01T02:41:04.157Z,997.05
2018-04-01T02:41:30.311Z,997.08
2018-04-01T02:41:56.490Z,997.06
2018-04-01T02:42:22.624Z,997.06
2018-04-01T02:42:48.767Z,997.07
2018-04-01T02:43:14.920Z,997.04
2018-04-01T02:43:41.087Z,997.06
2018-04-01T02:44:07.246Z,997.05
2018-04-01T02:44:33.383Z,997.08
2018-04-01T02:44:59.563Z,997.06
2018-04-01T02:45:25.725Z,997.08
2018-04-01T02:45:51.863Z,997.05
2018-04-01T02:46:18.044Z,997.08
2018-04-01T02:46:44.222Z,997.11
2018-04-01T02:47:10.359Z,997.07
2018-04-01T02:47:36.522Z,997.06
2018-04-01T02:48:02.701Z,997.08
2018-04-01T02:48:28.863Z,997.05
2018-04-01T02:48:54.994Z,997.04
2018-04-01T02:49:21.186Z,997.01
2018-04-01T02:49:47.406Z,997
2018-04-01T02:50:13.567Z,997.03
2018-04-01T02:50:39.715Z,997.02
2018-04-01T02:51:05.898Z,997.02
2018-04-01T02:51:32.102Z,997.01
2018-04-01T02:51:58.253Z,996.98
2018-04-01T02:52:24.431Z,996.99
2018-04-01T02:52:50.570Z,997.02
2018-04-01T02:53:16.742Z,997
2018-04-01T02:53:42.892Z,996.98
2018-04-01T02:54:09.111Z,997
2018-04-01T02:54:35.252Z,997
2018-04-01T02:55:01.430Z,997.01
2018-04-01T02:55:27.611Z,997.02
2018-04-01T02:55:53.756Z,997
2018-04-01T02:56:19.944Z,997
2018-04-01T02:56:46.105Z,996.99
2018-04-01T02:57:12.490Z,996.99
2018-04-01T02:57:38.652Z,996.98
2018-04-01T02:58:04.812Z,997.02
2018-04-01T02:58:30.987Z,997
2018-04-01T02:58:57.119Z,997.02
2018-04-01T02:59:23.278Z,997.01
2018-04-01T02:59:49.445Z,997.02
2018-04-01T03:00:15.665Z,997
2018-04-01T03:00:41.817Z,997
2018-04-01T03:01:07.993Z,997
2018-04-01T03:01:34.170Z,996.98
2018-04-01T03:02:00.328Z,996.99
2018-04-01T03:02:26.501Z,997.07
2018-04-01T03:02:52.633Z,997.06
2018-04-01T03:03:18.827Z,997.04
2018-04-01T03:03:44.989Z,997.07
2018-04-01T03:04:11.139Z,997.05
2018-04-01T03:04:37.360Z,997.04
2018-04-01T03:05:03.445Z,997.04
2018-04-01T03:05:29.615Z,997.07
2018-04-01T03:05:55.836Z,997.06
2018-04-01T03:06:22.022Z,997.04
2018-04-01T03:06:48.181Z,997.03
2018-04-01T03:07:14.345Z,997.01
2018-04-01T03:07:40.501Z,997.04
2018-04-01T03:08:06.652Z,997.06
2018-04-01T03:08:32.824Z,997.03
2018-04-01T03:08:58.971Z,997.03
2018-04-01T03:09:25.132Z,997.06
2018-04-01T03:09:51.266Z,997.07
2018-04-01T03:10:17.425Z,997.08
2018-04-01T03:10:43.576Z,997.05
2018-04-01T03:11:09.850Z,997.05
2018-04-01T03:11:35.962Z,997.04
2018-04-01T03:12:02.127Z,997.07
2018-04-01T03:12:28.329Z,997.06
2018-04-01T03:12:54.474Z,997.07
2018-04-01T03:13:20.632Z,997.06
2018-04-01T03:13:46.821Z,997.03
2018-04-01T03:14:12.986Z,997.04
2018-04-01T03:14:39.138Z,997.04
2018-04-01T03:15:05.288Z,997.04
2018-04-01T03:15:31.471Z,997.03
2018-04-01T03:15:57.636Z,997.06
2018-04-01T03:16:23.798Z,997.03
2018-04-01T03:16:49.988Z,997.03
2018-04-01T03:17:16.178Z,997.04
2018-04-01T03:17:42.337Z,997.07
2018-04-01T03:18:08.730Z,997.04
2018-04-01T03:18:34.878Z,997.05
2018-04-01T03:19:01.035Z,997.04
2018-04-01T03:19:27.190Z,997.07
2018-04-01T03:19:53.364Z,997.04
2018-04-01T03:20:19.563Z,997.03
2018-04-01T03:20:45.699Z,997.02
2018-04-01T03:21:11.855Z,997.03
2018-04-01T03:21:38.045Z,997
2018-04-01T03:22:04.217Z,997.03
2018-04-01T03:22:30.385Z,997.03
2018-04-01T03:22:56.541Z,997.05
2018-04-01T03:23:22.684Z,997.08
2018-04-01T03:23:48.843Z,997.08
2018-04-01T03:24:15.000Z,997.11
2018-04-01T03:24:41.151Z,997.09
2018-04-01T03:25:07.322Z,997.07
2018-04-01T03:25:33.464Z,997.1
2018-04-01T03:25:59.630Z,997.08
2018-04-01T03:26:25.826Z,997.07
2018-04-01T03:26:52.058Z,997.11
2018-04-01T03:27:18.134Z,997.05
2018-04-01T03:27:44.307Z,997.1
2018-04-01T03:28:10.466Z,997.06
2018-04-01T03:28:36.628Z,997.07
2018-04-01T03:29:02.800Z,997.06
2018-04-01T03:29:28.964Z,997.08
2018-04-01T03:29:55.112Z,997.1
2018-04-01T03:30:21.340Z,997.12
2018-04-01T03:30:47.438Z,997.12
2018-04-01T03:31:13.617Z,997.09
2018-04-01T03:31:39.761Z,997.09
2018-04-01T03:32:05.920Z,997.06
2018-04-01T03:32:32.143Z,997.09
2018-04-01T03:32:58.279Z,997.09
2018-04-01T03:33:24.423Z,997.09
2018-04-01T03:33:50.588Z,997.13
2018-04-01T03:34:16.718Z,997.11
2018-04-01T03:34:42.914Z,997.12
2018-04-01T03:35:09.089Z,997.1
2018-04-01T03:35:35.278Z,997.14
2018-04-01T03:36:01.479Z,997.17
2018-04-01T03:36:27.633Z,997.13
2018-04-01T03:36:53.831Z,997.13
2018-04-01T03:37:20.037Z,997.11
2018-04-01T03:37:46.192Z,997.11
2018-04-01T03:38:12.356Z,997.12
2018-04-01T03:38:38.522Z,997.13
2018-04-01T03:39:04.726Z,997.14
2018-04-01T03:39:30.885Z,997.12
2018-04-01T03:39:57.031Z,997.16
2018-04-01T03:40:23.255Z,997.09
2018-04-01T03:40:49.411Z,997.14
2018-04-01T03:41:15.547Z,997.12
2018-04-01T03:41:41.722Z,997.14
2018-04-01T03:42:07.867Z,997.12
2018-04-01T03:42:34.049Z,997.12
2018-04-01T03:43:00.216Z,997.16
2018-04-01T03:43:26.392Z,997.16
2018-04-01T03:43:52.566Z,997.15
2018-04-01T03:44:18.708Z,997.12
2018-04-01T03:44:44.844Z,997.16
2018-04-01T03:45:11.000Z,997.11
2018-04-01T03:45:37.149Z,997.11
2018-04-01T03:46:03.300Z,997.12
2018-04-01T03:46:29.459Z,997.13
2018-04-01T03:46:55.632Z,997.12
2018-04-01T03:47:21.794Z,997.11
2018-04-01T03:47:47.954Z,997.12
2018-04-01T03:48:14.116Z,997.11
2018-04-01T03:48:40.270Z,997.11
2018-04-01T03:49:06.438Z,997.11
2018-04-01T03:49:32.611Z,997.11
2018-04-01T03:49:58.792Z,997.14
2018-04-01T03:50:24.973Z,997.14
2018-04-01T03:50:51.153Z,997.12
2018-04-01T03:51:17.326Z,997.13
2018-04-01T03:51:43.488Z,997.15
2018-04-01T03:52:09.652Z,997.11
2018-04-01T03:52:35.804Z,997.16
2018-04-01T03:53:01.941Z,997.15
2018-04-01T03:53:28.181Z,997.16
2018-04-01T03:53:54.362Z,997.2
2018-04-01T03:54:20.566Z,997.2
2018-04-01T03:54:46.735Z,997.18
2018-04-01T03:55:12.903Z,997.15
2018-04-01T03:55:39.066Z,997.18
2018-04-01T03:56:05.222Z,997.19
2018-04-01T03:56:31.404Z,997.14
2018-04-01T03:56:57.551Z,997.2
2018-04-01T03:57:23.723Z,997.19
2018-04-01T03:57:49.888Z,997.19
2018-04-01T03:58:16.088Z,997.18
2018-04-01T03:58:42.241Z,997.21
2018-04-01T03:59:08.394Z,997.23
2018-04-01T03:59:34.552Z,997.24
2018-04-01T04:00:00.714Z,997.19
2018-04-01T04:00:26.960Z,997.25
2018-04-01T04:00:53.086Z,997.22
2018-04-01T04:01:19.251Z,997.24
2018-04-01T04:01:45.384Z,997.23
2018-04-01T04:02:11.540Z,997.24
2018-04-01T04:02:37.720Z,997.22
2018-04-01T04:03:03.887Z,997.22
2018-04-01T04:03:30.070Z,997.24
2018-04-01T04:03:56.224Z,997.22
2018-04-01T04:04:22.405Z,997.25
2018-04-01T04:04:48.572Z,997.23
2018-04-01T04:05:14.732Z,997.25
2018-04-01T04:05:40.885Z,997.25
2018-04-01T04:06:07.073Z,997.27
2018-04-01T04:06:33.239Z,997.27
2018-04-01T04:06:59.395Z,997.25
2018-04-01T04:07:25.546Z,997.26
2018-04-01T04:07:51.719Z,997.21
2018-04-01T04:08:17.896Z,997.23
2018-04-01T04:08:44.107Z,997.22
2018-04-01T04:09:10.259Z,997.18
2018-04-01T04:09:36.431Z,997.23
2018-04-01T04:10:02.607Z,997.23
2018-04-01T04:10:28.769Z,997.22
2018-04-01T04:10:54.969Z,997.21
2018-04-01T04:11:21.108Z,997.18
2018-04-01T04:11:47.291Z,997.21
2018-04-01T04:12:13.446Z,997.19
2018-04-01T04:12:39.602Z,997.21
2018-04-01T04:13:05.778Z,997.22
2018-04-01T04:13:31.915Z,997.2
2018-04-01T04:13:58.085Z,997.16
2018-04-01T04:14:24.245Z,997.16
2018-04-01T04:14:50.386Z,997.16
2018-04-01T04:15:16.540Z,997.18
2018-04-01T04:15:42.703Z,997.13
2018-04-01T04:16:08.872Z,997.12
2018-04-01T04:16:35.034Z,997.13
2018-04-01T04:17:01.170Z,997.12
2018-04-01T04:17:27.374Z,997.1
2018-04-01T04:17:53.539Z,997.13
2018-04-01T04:18:19.746Z,997.17
2018-04-01T04:18:45.894Z,997.14
2018-04-01T04:19:12.050Z,997.17
2018-04-01T04:19:38.217Z,997.18
2018-04-01T04:20:04.363Z,997.18
2018-04-01T04:20:30.503Z,997.18
2018-04-01T04:20:56.659Z,997.21
2018-04-01T04:21:22.812Z,997.19
2018-04-01T04:21:49.017Z,997.17
2018-04-01T04:22:15.195Z,997.19
2018-04-01T04:22:41.356Z,997.21
2018-04-01T04:23:07.505Z,997.24
2018-04-01T04:23:33.655Z,997.23
2018-04-01T04:23:59.821Z,997.24
2018-04-01T04:24:25.970Z,997.21
2018-04-01T04:24:52.164Z,997.22
2018-04-01T04:25:18.329Z,997.19
2018-04-01T04:25:44.462Z,997.25
2018-04-01T04:26:10.629Z,997.23
2018-04-01T04:26:36.775Z,997.2
2018-04-01T04:27:02.917Z,997.26
2018-04-01T04:27:29.078Z,997.24
2018-04-01T04:27:55.252Z,997.25
2018-04-01T04:28:21.421Z,997.25
2018-04-01T04:28:47.599Z,997.26
2018-04-01T04:29:13.768Z,997.25
2018-04-01T04:29:39.926Z,997.27
2018-04-01T04:30:06.090Z,997.26
2018-04-01T04:30:32.271Z,997.26
2018-04-01T04:30:58.425Z,997.26
2018-04-01T04:31:24.588Z,997.27
2018-04-01T04:31:50.762Z,997.23
2018-04-01T04:32:16.923Z,997.29
2018-04-01T04:32:43.094Z,997.28
2018-04-01T04:33:09.288Z,997.29
2018-04-01T04:33:35.459Z,997.25
2018-04-01T04:34:01.616Z,997.29
2018-04-01T04:34:27.775Z,997.29
2018-04-01T04:34:53.975Z,997.31
2018-04-01T04:35:20.153Z,997.28
2018-04-01T04:35:46.331Z,997.29
2018-04-01T04:36:12.533Z,997.27
2018-04-01T04:36:38.687Z,997.28
2018-04-01T04:37:04.883Z,997.32
2018-04-01T04:37:31.050Z,997.32
2018-04-01T04:37:57.277Z,997.3
2018-04-01T04:38:23.421Z,997.29
2018-04-01T04:38:49.600Z,997.32
2018-04-01T04:39:15.764Z,997.3
2018-04-01T04:39:41.953Z,997.33
2018-04-01T04:40:08.175Z,997.34
2018-04-01T04:40:34.324Z,997.34
2018-04-01T04:41:00.533Z,997.34
2018-04-01T04:41:26.689Z,997.35
2018-04-01T04:41:52.864Z,997.33
2018-04-01T04:42:19.030Z,997.39
2018-04-01T04:42:45.201Z,997.4
2018-04-01T04:43:11.381Z,997.37
2018-04-01T04:43:37.525Z,997.41
2018-04-01T04:44:03.664Z,997.4
2018-04-01T04:44:29.855Z,997.45
2018-04-01T04:44:56.028Z,997.45
2018-04-01T04:45:22.188Z,997.43
2018-04-01T04:45:48.350Z,997.41
2018-04-01T04:46:14.526Z,997.42
2018-04-01T04:46:40.686Z,997.44
2018-04-01T04:47:06.879Z,997.41
2018-04-01T04:47:33.042Z,997.46
2018-04-01T04:47:59.202Z,997.47
2018-04-01T04:48:25.407Z,997.45
2018-04-01T04:48:51.597Z,997.49
2018-04-01T04:49:17.770Z,997.5
2018-04-01T04:49:43.918Z,997.5
2018-04-01T04:50:10.058Z,997.49
2018-04-01T04:50:36.193Z,997.5
2018-04-01T04:51:02.324Z,997.52
2018-04-01T04:51:28.464Z,997.55
2018-04-01T04:51:54.603Z,997.54
2018-04-01T04:52:20.743Z,997.52
2018-04-01T04:52:46.883Z,997.54
2018-04-01T04:53:13.017Z,997.55
2018-04-01T04:53:39.158Z,997.54
2018-04-01T04:54:05.321Z,997.54
2018-04-01T04:54:31.455Z,997.54
2018-04-01T04:54:57.599Z,997.56
2018-04-01T04:55:23.737Z,997.55
2018-04-01T04:55:49.874Z,997.54
2018-04-01T04:56:16.006Z,997.58
2018-04-01T04:56:42.163Z,997.58
2018-04-01T04:57:08.297Z,997.56
2018-04-01T04:57:34.432Z,997.59
2018-04-01T04:58:00.571Z,997.57
2018-04-01T04:58:26.704Z,997.53
2018-04-01T04:58:52.844Z,997.57
2018-04-01T04:59:18.983Z,997.53
2018-04-01T04:59:45.126Z,997.57
2018-04-01T05:00:11.249Z,997.55
2018-04-01T05:00:37.385Z,997.52
2018-04-01T05:01:03.524Z,997.55
2018-04-01T05:01:29.664Z,997.57
2018-04-01T05:01:55.794Z,997.62
2018-04-01T05:02:21.953Z,997.54
2018-04-01T05:02:48.089Z,997.59
2018-04-01T05:03:14.227Z,997.56
2018-04-01T05:03:40.364Z,997.6
2018-04-01T05:04:06.501Z,997.6
2018-04-01T05:04:32.643Z,997.63
2018-04-01T05:04:58.789Z,997.6
2018-04-01T05:05:24.949Z,997.64
2018-04-01T05:05:51.133Z,997.6
2018-04-01T05:06:17.263Z,997.58
2018-04-01T05:06:43.400Z,997.58
2018-04-01T05:07:09.532Z,997.62
2018-04-01T05:07:35.664Z,997.59
2018-04-01T05:08:01.804Z,997.62
2018-04-01T05:08:27.974Z,997.64
2018-04-01T05:08:54.079Z,997.63
2018-04-01T05:09:20.219Z,997.61
2018-04-01T05:09:46.355Z,997.63
2018-04-01T05:10:12.506Z,997.63
2018-04-01T05:10:38.646Z,997.68
2018-04-01T05:11:04.788Z,997.64
2018-04-01T05:11:30.926Z,997.68
2018-04-01T05:11:57.080Z,997.68
2018-04-01T05:12:23.218Z,997.68
2018-04-01T05:12:49.353Z,997.73
2018-04-01T05:13:15.491Z,997.78
2018-04-01T05:13:41.629Z,997.77
2018-04-01T05:14:07.757Z,997.76
2018-04-01T05:14:33.891Z,997.77
2018-04-01T05:15:00.029Z,997.75
2018-04-01T05:15:26.184Z,997.84
2018-04-01T05:15:52.316Z,997.81
2018-04-01T05:16:18.457Z,997.88
2018-04-01T05:16:44.594Z,997.87
2018-04-01T05:17:10.742Z,997.85
2018-04-01T05:17:36.866Z,997.83
2018-04-01T05:18:03.003Z,997.89
2018-04-01T05:18:29.165Z,997.87
2018-04-01T05:18:55.302Z,997.86
2018-04-01T05:19:21.432Z,997.86
2018-04-01T05:19:47.570Z,997.87
2018-04-01T05:20:13.708Z,997.92
2018-04-01T05:20:39.852Z,997.94
2018-04-01T05:21:05.978Z,997.92
2018-04-01T05:21:32.118Z,997.95
2018-04-01T05:21:58.251Z,997.95
2018-04-01T05:22:24.387Z,997.95
2018-04-01T05:22:50.565Z,997.94
2018-04-01T05:23:16.667Z,997.95
2018-04-01T05:23:42.797Z,997.94
2018-04-01T05:24:08.935Z,997.94
2018-04-01T05:24:35.072Z,997.98
2018-04-01T05:25:01.214Z,997.92
2018-04-01T05:25:27.374Z,998
2018-04-01T05:25:53.518Z,997.95
2018-04-01T05:26:19.647Z,997.97
2018-04-01T05:26:45.808Z,998.01
2018-04-01T05:27:11.968Z,997.97
2018-04-01T05:27:38.110Z,997.98